Time;durP1;ratioP1;P1;durP2;ratioP2;P2;SDS_P1;SDS_P2;PMS_P1;PMS_P2;Temp;Humidity;BMP_temperature;BMP_pressure;BME280_temperature;BME280_humidity;BME280_pressure;Samples;Min_cycle;Max_cycle;Signal;HPM_P1;HPM_P2
2021/12/06 00:00:26;;;;;;;1999.90;999.90;;;;;;;;;;4995423;28;20404;-81
2021/12/06 00:02:53;;;;;;;1999.90;999.90;;;;;;;;;;4996535;28;20064;-81
2021/12/06 00:05:19;;;;;;;1999.90;999.90;;;;;;;;;;4964053;28;20034;-81
2021/12/06 00:07:44;;;;;;;1999.90;999.90;;;;;;;;;;5000633;28;20076;-81
2021/12/06 00:10:10;;;;;;;1999.90;999.90;;;;;;;;;;5015493;28;20022;-81
2021/12/06 00:12:36;;;;;;;1999.90;999.90;;;;;;;;;;4996239;28;20041;-81
2021/12/06 00:15:01;;;;;;;1999.90;999.90;;;;;;;;;;5007483;28;20030;-81
2021/12/06 00:17:27;;;;;;;1999.90;999.90;;;;;;;;;;4996313;28;20045;-80
2021/12/06 00:19:52;;;;;;;1999.90;999.90;;;;;;;;;;4978838;28;20033;-81
2021/12/06 00:22:23;;;;;;;1999.90;999.90;;;;;;;;;;4979730;28;20065;-81
2021/12/06 00:24:52;;;;;;;1999.90;999.90;;;;;;;;;;4996380;28;20030;-81
2021/12/06 00:27:18;;;;;;;1999.90;999.90;;;;;;;;;;4979480;28;20036;-80
2021/12/06 00:29:43;;;;;;;1999.90;999.90;;;;;;;;;;4995675;28;20042;-81
2021/12/06 00:32:09;;;;;;;1999.90;999.90;;;;;;;;;;4996081;28;20052;-80
2021/12/06 00:34:37;;;;;;;1999.90;999.90;;;;;;;;;;4963263;28;20484;-81
2021/12/06 00:37:17;;;;;;;1999.90;999.90;;;;;;;;;;4963846;28;20022;-80
2021/12/06 00:39:46;;;;;;;1542.82;754.03;;;;;;;;;;4983572;28;20025;-81
2021/12/06 00:42:12;;;;;;;1999.90;999.90;;;;;;;;;;4995746;28;20030;-81
2021/12/06 00:44:37;;;;;;;1999.90;999.90;;;;;;;;;;4995305;28;20072;-81
2021/12/06 00:47:03;;;;;;;1999.90;999.90;;;;;;;;;;4995534;28;20148;-81
2021/12/06 00:49:29;;;;;;;1999.90;999.90;;;;;;;;;;4962975;28;20128;-80
2021/12/06 00:51:54;;;;;;;1999.90;999.90;;;;;;;;;;4963007;28;20022;-81
2021/12/06 00:54:20;;;;;;;1999.90;999.90;;;;;;;;;;4995208;28;20037;-81
2021/12/06 00:56:45;;;;;;;1999.90;999.90;;;;;;;;;;4995099;28;20056;-81
2021/12/06 00:59:11;;;;;;;1999.90;999.90;;;;;;;;;;4991493;28;20070;-80
2021/12/06 01:01:36;;;;;;;1999.90;999.90;;;;;;;;;;4959551;28;20030;-81
2021/12/06 01:04:02;;;;;;;1999.90;999.90;;;;;;;;;;4959793;28;20030;-81
2021/12/06 01:06:28;;;;;;;1999.90;999.90;;;;;;;;;;4959733;28;20034;-81
2021/12/06 01:08:53;;;;;;;1999.90;999.90;;;;;;;;;;4987587;28;20055;-80
2021/12/06 01:11:18;;;;;;;1999.90;999.90;;;;;;;;;;4998436;28;20065;-81
2021/12/06 01:13:44;;;;;;;1999.90;999.90;;;;;;;;;;4998434;28;20056;-80
2021/12/06 01:16:09;;;;;;;1999.90;999.90;;;;;;;;;;4995418;28;20037;-80
2021/12/06 01:18:36;;;;;;;1999.90;999.90;;;;;;;;;;4978768;28;20029;-80
2021/12/06 01:23:31;;;;;;;1999.90;999.90;;;;;;;;;;4994860;28;20088;-80
2021/12/06 01:41:35;;;;;;;1999.90;999.90;;;;;;;;;;4996936;28;20045;-81
2021/12/06 01:44:11;;;;;;;1999.90;999.90;;;;;;;;;;4962557;28;20026;-80
2021/12/06 01:46:58;;;;;;;1999.90;999.90;;;;;;;;;;4978523;28;20034;-80
2021/12/06 01:49:24;;;;;;;1999.90;999.90;;;;;;;;;;4980596;28;20053;-81
2021/12/06 01:51:51;;;;;;;1999.90;999.90;;;;;;;;;;4994563;28;20046;-81
2021/12/06 01:54:17;;;;;;;1999.90;999.90;;;;;;;;;;4962380;28;20021;-80
2021/12/06 01:56:42;;;;;;;1999.90;999.90;;;;;;;;;;4994053;28;20029;-80
2021/12/06 01:59:08;;;;;;;1999.90;999.90;;;;;;;;;;4974807;28;20104;-80
2021/12/06 02:01:33;;;;;;;1999.90;999.90;;;;;;;;;;4975091;28;20511;-81
2021/12/06 02:03:59;;;;;;;1999.90;999.90;;;;;;;;;;4974819;28;20030;-81
2021/12/06 02:06:24;;;;;;;1999.90;999.90;;;;;;;;;;4975038;28;20040;-81
2021/12/06 02:08:50;;;;;;;1999.90;999.90;;;;;;;;;;5000869;28;20073;-81
2021/12/06 02:11:16;;;;;;;1999.90;999.90;;;;;;;;;;4970266;28;20033;-81
2021/12/06 02:13:54;;;;;;;1999.90;999.90;;;;;;;;;;4978394;28;20030;-81
2021/12/06 02:16:28;;;;;;;1999.90;999.90;;;;;;;;;;4962521;28;20030;-81
2021/12/06 02:19:01;;;;;;;1999.90;999.90;;;;;;;;;;4976816;28;20100;-80
2021/12/06 02:21:30;;;;;;;1999.90;999.90;;;;;;;;;;4960545;28;20041;-80
2021/12/06 02:23:55;;;;;;;1999.90;999.90;;;;;;;;;;4975101;28;20026;-81
2021/12/06 02:26:21;;;;;;;1999.90;999.90;;;;;;;;;;4942615;28;20030;-81
2021/12/06 02:28:46;;;;;;;1999.90;999.90;;;;;;;;;;4958393;28;20120;-81
2021/12/06 02:31:12;;;;;;;1999.90;999.90;;;;;;;;;;4959109;28;20488;-81
2021/12/06 02:33:37;;;;;;;1999.90;999.90;;;;;;;;;;4977917;28;20037;-81
2021/12/06 02:36:03;;;;;;;1999.90;999.90;;;;;;;;;;4961401;28;20077;-81
2021/12/06 02:38:29;;;;;;;1999.90;999.90;;;;;;;;;;4978198;28;20041;-81
2021/12/06 02:40:54;;;;;;;1999.90;999.90;;;;;;;;;;4993962;28;20116;-80
2021/12/06 02:43:20;;;;;;;1999.90;999.90;;;;;;;;;;4994430;28;20030;-79
2021/12/06 02:45:45;;;;;;;1999.90;999.90;;;;;;;;;;4977241;28;20042;-80
2021/12/06 02:48:11;;;;;;;1999.90;999.90;;;;;;;;;;4974189;28;20042;-81
2021/12/06 02:50:42;;;;;;;1999.90;999.90;;;;;;;;;;4990914;28;20038;-80
2021/12/06 02:53:08;;;;;;;1999.90;999.90;;;;;;;;;;4959162;28;20030;-81
2021/12/06 02:58:02;;;;;;;1999.90;999.90;;;;;;;;;;4979918;28;20488;-80
2021/12/06 03:00:27;;;;;;;1999.90;999.90;;;;;;;;;;4996124;28;20480;-81
2021/12/06 03:02:53;;;;;;;1999.90;999.90;;;;;;;;;;4997424;28;20037;-81
2021/12/06 03:05:18;;;;;;;1999.90;999.90;;;;;;;;;;4997551;28;20092;-81
2021/12/06 03:07:47;;;;;;;1999.90;999.90;;;;;;;;;;5001576;28;20029;-79
2021/12/06 03:10:13;;;;;;;1999.90;999.90;;;;;;;;;;5001348;28;20517;-80
2021/12/06 03:12:38;;;;;;;1999.90;999.90;;;;;;;;;;4991672;28;20069;-80
2021/12/06 03:15:05;;;;;;;1999.90;999.90;;;;;;;;;;4994241;28;20026;-81
2021/12/06 03:17:31;;;;;;;1999.90;999.90;;;;;;;;;;4964949;28;20439;-80
2021/12/06 03:19:57;;;;;;;1999.90;999.90;;;;;;;;;;4980751;28;20033;-81
2021/12/06 03:22:22;;;;;;;1999.90;999.90;;;;;;;;;;4997368;28;20026;-80
2021/12/06 03:24:48;;;;;;;1999.90;999.90;;;;;;;;;;4996872;28;20030;-80
2021/12/06 03:27:14;;;;;;;1999.90;999.90;;;;;;;;;;4997184;28;20049;-81
2021/12/06 03:29:40;;;;;;;1999.90;999.90;;;;;;;;;;4996371;28;20057;-80
2021/12/06 03:32:06;;;;;;;1999.90;999.90;;;;;;;;;;4980742;28;20065;-81
2021/12/06 03:34:32;;;;;;;1616.50;761.20;;;;;;;;;;4980811;28;20049;-81
2021/12/06 03:36:59;;;;;;;1999.90;999.90;;;;;;;;;;4980299;28;20472;-81
2021/12/06 03:39:27;;;;;;;1999.90;999.90;;;;;;;;;;4996779;28;20033;-81
2021/12/06 03:41:55;;;;;;;1999.90;999.90;;;;;;;;;;4980798;28;20026;-81
2021/12/06 03:44:21;;;;;;;1999.90;999.90;;;;;;;;;;4979814;28;20029;-81
2021/12/06 03:46:48;;;;;;;1999.90;999.90;;;;;;;;;;4996616;28;20041;-80
2021/12/06 03:49:14;;;;;;;1999.90;999.90;;;;;;;;;;4980815;28;20033;-81
2021/12/06 03:51:40;;;;;;;1551.18;753.92;;;;;;;;;;4996177;28;20400;-80
2021/12/06 03:54:06;;;;;;;1999.90;999.90;;;;;;;;;;4996622;28;20507;-81
2021/12/06 03:56:31;;;;;;;1999.90;999.90;;;;;;;;;;4996991;28;20042;-81
2021/12/06 03:58:57;;;;;;;1999.90;999.90;;;;;;;;;;4993292;28;20022;-81
2021/12/06 04:01:23;;;;;;;1999.90;999.90;;;;;;;;;;4979626;28;20041;-80
2021/12/06 04:03:48;;;;;;;1999.90;999.90;;;;;;;;;;4995975;28;20030;-80
2021/12/06 04:06:14;;;;;;;1999.90;999.90;;;;;;;;;;4996241;28;20038;-81
2021/12/06 04:08:39;;;;;;;1999.90;999.90;;;;;;;;;;4965668;28;20109;-81
2021/12/06 04:11:05;;;;;;;1999.90;999.90;;;;;;;;;;4963297;28;20492;-81
2021/12/06 04:13:30;;;;;;;1999.90;999.90;;;;;;;;;;4964046;28;20026;-81
2021/12/06 04:15:57;;;;;;;1999.90;999.90;;;;;;;;;;4960261;28;20440;-81
2021/12/06 04:18:22;;;;;;;1999.90;999.90;;;;;;;;;;4996081;28;20096;-81
2021/12/06 04:20:48;;;;;;;1999.90;999.90;;;;;;;;;;4963610;28;20033;-81
2021/12/06 04:23:13;;;;;;;1999.90;999.90;;;;;;;;;;4979776;28;20029;-81
2021/12/06 04:25:39;;;;;;;1999.90;999.90;;;;;;;;;;4995824;28;20059;-82
2021/12/06 04:28:07;;;;;;;1999.90;999.90;;;;;;;;;;4963685;28;20117;-80
2021/12/06 04:30:33;;;;;;;1999.90;999.90;;;;;;;;;;4963857;28;20060;-80
2021/12/06 04:32:59;;;;;;;1999.90;999.90;;;;;;;;;;4962929;28;20392;-80
2021/12/06 04:35:24;;;;;;;1999.90;999.90;;;;;;;;;;4979022;28;20049;-81
2021/12/06 04:37:50;;;;;;;1999.90;999.90;;;;;;;;;;4979711;28;20049;-80
2021/12/06 04:40:15;;;;;;;1999.90;999.90;;;;;;;;;;4978932;28;20108;-81
2021/12/06 04:42:41;;;;;;;1999.90;999.90;;;;;;;;;;4979552;28;20060;-80
2021/12/06 04:45:07;;;;;;;1999.90;999.90;;;;;;;;;;4995245;28;20038;-81
2021/12/06 04:47:32;;;;;;;1999.90;999.90;;;;;;;;;;4995333;28;20136;-81
2021/12/06 04:49:59;;;;;;;1999.90;999.90;;;;;;;;;;4979092;28;20080;-81
2021/12/06 04:52:24;;;;;;;1999.90;999.90;;;;;;;;;;4979544;28;20037;-81
2021/12/06 04:54:54;;;;;;;1999.90;999.90;;;;;;;;;;4995617;28;20038;-80
2021/12/06 04:57:23;;;;;;;1999.90;999.90;;;;;;;;;;4963306;28;20034;-80
2021/12/06 04:59:54;;;;;;;1999.90;999.90;;;;;;;;;;4978749;28;20041;-80
2021/12/06 05:02:28;;;;;;;1999.90;999.90;;;;;;;;;;4988484;28;20121;-81
2021/12/06 05:04:56;;;;;;;1999.90;999.90;;;;;;;;;;4976546;28;20044;-81
2021/12/06 05:07:27;;;;;;;1999.90;999.90;;;;;;;;;;4946321;28;20034;-81
2021/12/06 05:09:52;;;;;;;1999.90;999.90;;;;;;;;;;4998522;28;20041;-80
2021/12/06 05:12:18;;;;;;;1999.90;999.90;;;;;;;;;;4998425;28;20072;-81
2021/12/06 05:14:44;;;;;;;1999.90;999.90;;;;;;;;;;4973832;28;20049;-81
2021/12/06 05:17:10;;;;;;;1999.90;999.90;;;;;;;;;;4979052;28;20034;-81
2021/12/06 05:19:36;;;;;;;1999.90;999.90;;;;;;;;;;4962438;28;20064;-81
2021/12/06 05:22:02;;;;;;;1999.90;999.90;;;;;;;;;;4962022;28;20033;-80
2021/12/06 05:24:27;;;;;;;1999.90;999.90;;;;;;;;;;4962644;28;20061;-80
2021/12/06 05:26:53;;;;;;;1999.90;999.90;;;;;;;;;;4978416;28;20034;-80
2021/12/06 05:29:20;;;;;;;1999.90;999.90;;;;;;;;;;4994930;28;20045;-81
2021/12/06 05:31:54;;;;;;;1999.90;999.90;;;;;;;;;;4994407;28;20026;-81
2021/12/06 05:34:27;;;;;;;1999.90;999.90;;;;;;;;;;4995577;28;20040;-81
2021/12/06 05:36:53;;;;;;;1999.90;999.90;;;;;;;;;;4964351;28;20026;-81
2021/12/06 05:39:18;;;;;;;1999.90;999.90;;;;;;;;;;4994292;28;20092;-80
2021/12/06 05:41:44;;;;;;;1999.90;999.90;;;;;;;;;;4978395;28;20034;-80
2021/12/06 05:44:09;;;;;;;1999.90;999.90;;;;;;;;;;4962371;28;20092;-80
2021/12/06 05:46:38;;;;;;;1999.90;999.90;;;;;;;;;;4979153;28;20025;-88
2021/12/06 05:49:03;;;;;;;1999.90;999.90;;;;;;;;;;4978702;28;20050;-81
2021/12/06 05:51:29;;;;;;;1999.90;999.90;;;;;;;;;;4962417;28;20194;-80
2021/12/06 05:53:54;;;;;;;1999.90;999.90;;;;;;;;;;4978361;28;20034;-79
2021/12/06 05:56:20;;;;;;;1999.90;999.90;;;;;;;;;;4986936;28;20044;-81
2021/12/06 05:58:45;;;;;;;1999.90;999.90;;;;;;;;;;4970314;28;20037;-81
2021/12/06 06:01:11;;;;;;;1999.90;999.90;;;;;;;;;;4976738;28;20040;-80
2021/12/06 06:03:36;;;;;;;1999.90;999.90;;;;;;;;;;4993599;28;20088;-80
2021/12/06 06:06:02;;;;;;;1999.90;999.90;;;;;;;;;;4994220;28;20104;-81
2021/12/06 06:08:27;;;;;;;1999.90;999.90;;;;;;;;;;4987878;28;20033;-80
2021/12/06 06:10:53;;;;;;;1999.90;999.90;;;;;;;;;;5013905;28;20038;-80
2021/12/06 06:13:19;;;;;;;1999.90;999.90;;;;;;;;;;5014101;28;20115;-82
2021/12/06 06:15:45;;;;;;;1999.90;999.90;;;;;;;;;;4959128;28;20070;-81
2021/12/06 06:18:10;;;;;;;1999.90;999.90;;;;;;;;;;4998737;28;20030;-82
2021/12/06 06:20:41;;;;;;;1999.90;999.90;;;;;;;;;;4993908;28;20034;-82
2021/12/06 06:23:07;;;;;;;1999.90;999.90;;;;;;;;;;5010559;28;20033;-82
2021/12/06 06:25:33;;;;;;;1999.90;999.90;;;;;;;;;;4993040;28;20034;-81
2021/12/06 06:27:58;;;;;;;1999.90;999.90;;;;;;;;;;4958144;28;20433;-82
2021/12/06 06:30:24;;;;;;;1999.90;999.90;;;;;;;;;;4959796;28;20423;-81
2021/12/06 06:32:49;;;;;;;1999.90;999.90;;;;;;;;;;4961622;28;20034;-82
2021/12/06 06:35:15;;;;;;;1999.90;999.90;;;;;;;;;;4997515;28;20488;-82
2021/12/06 06:37:40;;;;;;;1999.90;999.90;;;;;;;;;;4981445;28;20026;-82
2021/12/06 06:40:06;;;;;;;1999.90;999.90;;;;;;;;;;4977974;28;20030;-82
2021/12/06 06:42:32;;;;;;;1999.90;999.90;;;;;;;;;;4980034;28;20030;-81
2021/12/06 06:44:57;;;;;;;1999.90;999.90;;;;;;;;;;4980738;28;20045;-82
2021/12/06 06:47:23;;;;;;;1999.90;999.90;;;;;;;;;;4997371;28;20025;-82
2021/12/06 06:49:48;;;;;;;1999.90;999.90;;;;;;;;;;4965259;28;20546;-82
2021/12/06 06:52:14;;;;;;;1999.90;999.90;;;;;;;;;;4965365;28;20387;-82
2021/12/06 06:54:40;;;;;;;1999.90;999.90;;;;;;;;;;4964858;28;20026;-82
2021/12/06 06:57:05;;;;;;;1999.90;999.90;;;;;;;;;;4977690;28;20404;-82
2021/12/06 06:59:31;;;;;;;1999.90;999.90;;;;;;;;;;4980928;28;20391;-83
2021/12/06 07:01:57;;;;;;;1999.90;999.90;;;;;;;;;;4996961;28;20030;-81
2021/12/06 07:04:22;;;;;;;1999.90;999.90;;;;;;;;;;4997349;28;20044;-82
2021/12/06 07:06:49;;;;;;;1999.90;999.90;;;;;;;;;;4965042;28;20500;-83
2021/12/06 07:09:14;;;;;;;1999.90;999.90;;;;;;;;;;4981552;28;20511;-81
2021/12/06 07:11:44;;;;;;;1999.90;999.90;;;;;;;;;;5001500;28;20034;-84
2021/12/06 07:14:10;;;;;;;1999.90;999.90;;;;;;;;;;4978289;28;20049;-80
2021/12/06 07:16:35;;;;;;;1999.90;999.90;;;;;;;;;;4979062;28;20034;-82
2021/12/06 07:19:02;;;;;;;1999.90;999.90;;;;;;;;;;4980794;28;20121;-86
2021/12/06 07:21:29;;;;;;;1999.90;999.90;;;;;;;;;;4965177;28;20030;-86
2021/12/06 07:24:01;;;;;;;1999.90;999.90;;;;;;;;;;4997682;28;20117;-86
2021/12/06 07:26:28;;;;;;;1999.90;999.90;;;;;;;;;;4981707;28;20480;-86
2021/12/06 07:28:55;;;;;;;1999.90;999.90;;;;;;;;;;4997931;28;20435;-88
2021/12/06 07:31:23;;;;;;;1999.90;999.90;;;;;;;;;;4998282;28;20026;-89
2021/12/06 07:33:49;;;;;;;1999.90;999.90;;;;;;;;;;4982053;28;20041;-88
2021/12/06 07:36:14;;;;;;;1999.90;999.90;;;;;;;;;;4997619;28;20064;-87
2021/12/06 07:38:41;;;;;;;1999.90;999.90;;;;;;;;;;4970107;28;20087;-85
2021/12/06 07:41:10;;;;;;;1999.90;999.90;;;;;;;;;;4981602;28;20033;-86
2021/12/06 07:43:36;;;;;;;1999.90;999.90;;;;;;;;;;4984279;28;20041;-87
2021/12/06 07:46:02;;;;;;;1999.90;999.90;;;;;;;;;;4994266;28;20135;-86
2021/12/06 07:48:27;;;;;;;1999.90;999.90;;;;;;;;;;4956393;28;20034;-87
2021/12/06 07:50:52;;;;;;;1999.90;999.90;;;;;;;;;;4950769;28;20528;-87
2021/12/06 07:53:18;;;;;;;1999.90;999.90;;;;;;;;;;4977362;28;20049;-87
2021/12/06 07:55:44;;;;;;;1999.90;999.90;;;;;;;;;;4980586;28;20037;-86
2021/12/06 07:58:10;;;;;;;1999.90;999.90;;;;;;;;;;4964323;28;20112;-86
2021/12/06 08:00:44;;;;;;;1999.90;999.90;;;;;;;;;;4996550;28;20041;-87
2021/12/06 08:03:10;;;;;;;1999.90;999.90;;;;;;;;;;4980473;28;20037;-87
2021/12/06 08:05:37;;;;;;;1638.55;767.22;;;;;;;;;;4996425;28;20108;-86
2021/12/06 08:08:12;;;;;;;1999.90;999.90;;;;;;;;;;4971845;28;20091;-87
2021/12/06 08:10:40;;;;;;;1999.90;999.90;;;;;;;;;;4971044;28;20032;-87
2021/12/06 08:13:05;;;;;;;1999.90;999.90;;;;;;;;;;4976771;28;20567;-87
2021/12/06 08:15:31;;;;;;;1999.90;999.90;;;;;;;;;;4996514;28;20037;-86
2021/12/06 08:17:56;;;;;;;1999.90;999.90;;;;;;;;;;4980057;28;20432;-87
2021/12/06 08:20:22;;;;;;;1999.90;999.90;;;;;;;;;;4980123;28;20028;-87
2021/12/06 08:22:47;;;;;;;1999.90;999.90;;;;;;;;;;4980477;28;20038;-87
2021/12/06 08:25:13;;;;;;;1999.90;999.90;;;;;;;;;;4996147;28;20037;-87
2021/12/06 08:27:39;;;;;;;1999.90;999.90;;;;;;;;;;4996450;28;20077;-86
2021/12/06 08:30:05;;;;;;;1999.90;999.90;;;;;;;;;;4964490;28;20053;-87
2021/12/06 08:32:30;;;;;;;1999.90;999.90;;;;;;;;;;4965042;28;20175;-87
2021/12/06 08:34:56;;;;;;;1999.90;999.90;;;;;;;;;;4980375;28;20121;-87
2021/12/06 08:37:21;;;;;;;1999.90;999.90;;;;;;;;;;4980069;28;20034;-88
2021/12/06 08:39:46;;;;;;;1999.90;999.90;;;;;;;;;;4979612;28;20064;-86
2021/12/06 08:42:12;;;;;;;1999.90;999.90;;;;;;;;;;4977858;28;20034;-87
2021/12/06 08:44:37;;;;;;;1999.90;999.90;;;;;;;;;;4976036;28;20034;-88
2021/12/06 08:47:03;;;;;;;1999.90;999.90;;;;;;;;;;4992620;28;20034;-88
2021/12/06 08:49:29;;;;;;;1999.90;999.90;;;;;;;;;;4992595;28;20132;-87
2021/12/06 08:51:57;;;;;;;1573.57;755.65;;;;;;;;;;4993405;28;20464;-86
2021/12/06 08:54:26;;;;;;;1999.90;999.90;;;;;;;;;;4980089;28;20506;-87
2021/12/06 08:56:52;;;;;;;1999.90;999.90;;;;;;;;;;4996273;28;20087;-88
2021/12/06 08:59:17;;;;;;;1999.90;999.90;;;;;;;;;;4979265;28;20026;-87
2021/12/06 09:01:43;;;;;;;1999.90;999.90;;;;;;;;;;4978837;28;20038;-87
2021/12/06 09:04:11;;;;;;;1508.72;752.15;;;;;;;;;;4979028;28;20026;-87
2021/12/06 09:06:38;;;;;;;1999.90;999.90;;;;;;;;;;4964105;28;20038;-87
2021/12/06 09:09:05;;;;;;;1540.25;754.63;;;;;;;;;;4977630;28;20087;-87
2021/12/06 09:11:31;;;;;;;1999.90;999.90;;;;;;;;;;4982743;28;20041;-87
2021/12/06 09:13:56;;;;;;;1999.90;999.90;;;;;;;;;;4964869;28;20034;-87
2021/12/06 09:16:22;;;;;;;1999.90;999.90;;;;;;;;;;4975638;28;20042;-86
2021/12/06 09:18:48;;;;;;;1999.90;999.90;;;;;;;;;;4944138;28;20438;-87
2021/12/06 09:21:17;;;;;;;1999.90;999.90;;;;;;;;;;4944128;28;20558;-87
2021/12/06 09:23:42;;;;;;;1999.90;999.90;;;;;;;;;;4976377;28;20030;-87
2021/12/06 09:26:08;;;;;;;1999.90;999.90;;;;;;;;;;4994990;28;20034;-87
2021/12/06 09:28:33;;;;;;;1999.90;999.90;;;;;;;;;;4963203;28;20026;-89
2021/12/06 09:30:59;;;;;;;1999.90;999.90;;;;;;;;;;4979088;28;20045;-88
2021/12/06 09:33:24;;;;;;;1999.90;999.90;;;;;;;;;;4979487;28;20060;-87
2021/12/06 09:35:50;;;;;;;1578.82;755.70;;;;;;;;;;4979477;28;20030;-87
2021/12/06 09:38:18;;;;;;;1999.90;999.90;;;;;;;;;;4979161;28;20021;-88
2021/12/06 09:40:46;;;;;;;1999.90;999.90;;;;;;;;;;4978323;28;20030;-89
2021/12/06 09:43:13;;;;;;;1999.90;999.90;;;;;;;;;;4971896;28;20049;-87
2021/12/06 09:45:38;;;;;;;1999.90;999.90;;;;;;;;;;4970923;28;20061;-88
2021/12/06 09:48:04;;;;;;;1999.90;999.90;;;;;;;;;;4986715;28;20078;-86
2021/12/06 09:50:58;;;;;;;1999.90;999.90;;;;;;;;;;4988350;28;20100;-88
2021/12/06 09:53:25;;;;;;;1999.90;999.90;;;;;;;;;;5001731;28;20042;-89
2021/12/06 09:55:51;;;;;;;1999.90;999.90;;;;;;;;;;4973912;28;20120;-95
2021/12/06 09:58:17;;;;;;;1999.90;999.90;;;;;;;;;;4967278;28;20034;-92
2021/12/06 10:00:52;;;;;;;1999.90;999.90;;;;;;;;;;4976285;28;20485;-91
2021/12/06 10:03:23;;;;;;;1999.90;999.90;;;;;;;;;;4945342;28;20084;-88
2021/12/06 10:05:48;;;;;;;1999.90;999.90;;;;;;;;;;4961257;28;20034;-88
2021/12/06 10:08:15;;;;;;;1999.90;999.90;;;;;;;;;;4950248;28;20042;-89
2021/12/06 10:10:40;;;;;;;1999.90;999.90;;;;;;;;;;4986660;28;20435;-88
2021/12/06 10:13:06;;;;;;;1999.90;999.90;;;;;;;;;;5016764;28;20029;-90
2021/12/06 10:15:31;;;;;;;1999.90;999.90;;;;;;;;;;4985522;28;20113;-90
2021/12/06 10:18:00;;;;;;;1999.90;999.90;;;;;;;;;;4985291;28;20026;-89
2021/12/06 10:20:26;;;;;;;1999.90;999.90;;;;;;;;;;4969973;28;20029;-89
2021/12/06 10:22:52;;;;;;;1999.90;999.90;;;;;;;;;;4987591;28;20034;-88
2021/12/06 10:25:17;;;;;;;1612.28;757.50;;;;;;;;;;4968645;28;20041;-88
2021/12/06 10:27:56;;;;;;;1999.90;999.90;;;;;;;;;;4975407;28;20029;-88
2021/12/06 10:30:22;;;;;;;1999.90;999.90;;;;;;;;;;4960507;28;20053;-88
2021/12/06 10:32:47;;;;;;;1999.90;999.90;;;;;;;;;;4982226;28;20091;-88
2021/12/06 10:35:14;;;;;;;1999.90;999.90;;;;;;;;;;4992423;28;20038;-89
2021/12/06 10:37:46;;;;;;;1999.90;999.90;;;;;;;;;;4963767;28;20037;-88
2021/12/06 10:40:23;;;;;;;1999.90;999.90;;;;;;;;;;4991974;28;20046;-87
2021/12/06 10:42:50;;;;;;;1999.90;999.90;;;;;;;;;;4985285;28;20507;-86
2021/12/06 10:45:21;;;;;;;1999.90;999.90;;;;;;;;;;4968659;28;20121;-87
2021/12/06 10:48:15;;;;;;;1558.60;754.40;;;;;;;;;;4996523;28;20030;-88
2021/12/06 10:51:05;;;;;;;1999.90;999.90;;;;;;;;;;4994262;28;20463;-88
2021/12/06 10:53:37;;;;;;;1999.90;999.90;;;;;;;;;;5001260;28;20084;-89
2021/12/06 10:56:03;;;;;;;1999.90;999.90;;;;;;;;;;4986518;28;20026;-89
2021/12/06 10:58:30;;;;;;;1999.90;999.90;;;;;;;;;;4969107;28;20061;-90
2021/12/06 11:01:08;;;;;;;1999.90;999.90;;;;;;;;;;5001711;28;20034;-89
2021/12/06 11:04:01;;;;;;;1999.90;999.90;;;;;;;;;;5000615;28;20580;-89
2021/12/06 11:06:32;;;;;;;;;;;;;;;;;;4993552;28;20133;-89
2021/12/06 11:08:59;;;;;;;1999.90;999.90;;;;;;;;;;5017901;28;20003;-91
2021/12/06 11:11:31;;;;;;;1999.90;999.90;;;;;;;;;;4964559;28;20034;-92
2021/12/06 11:14:01;;;;;;;1999.90;999.90;;;;;;;;;;4978389;28;20034;-93
2021/12/06 11:16:27;;;;;;;1616.68;761.15;;;;;;;;;;5002148;28;20445;-92
2021/12/06 11:19:01;;;;;;;1999.90;999.90;;;;;;;;;;5001686;28;20034;-92
2021/12/06 11:21:42;;;;;;;1332.30;521.60;;;;;;;;;;4964825;28;20404;-91
2021/12/06 11:24:26;;;;;;;1999.90;999.90;;;;;;;;;;4965842;28;20033;-90
2021/12/06 11:27:17;;;;;;;477.73;30.45;;;;;;;;;;4998463;28;20588;-89
2021/12/06 11:30:06;;;;;;;1999.90;999.90;;;;;;;;;;4999847;28;20456;-86
2021/12/06 11:32:34;;;;;;;1999.90;999.90;;;;;;;;;;4996669;28;20030;-89
2021/12/06 11:35:14;;;;;;;1734.13;764.58;;;;;;;;;;4965002;28;20038;-89
2021/12/06 11:37:42;;;;;;;1999.90;999.90;;;;;;;;;;4967106;28;20527;-88
2021/12/06 11:40:12;;;;;;;1999.90;999.90;;;;;;;;;;4980887;28;20030;-88
2021/12/06 11:43:07;;;;;;;1488.40;543.40;;;;;;;;;;4982913;28;20041;-88
2021/12/06 11:45:47;;;;;;;1999.90;999.90;;;;;;;;;;4997743;28;20038;-87
2021/12/06 11:48:14;;;;;;;1999.90;999.90;;;;;;;;;;4997776;28;20042;-89
2021/12/06 11:50:49;;;;;;;859.70;71.32;;;;;;;;;;4965550;28;20072;-86
2021/12/06 11:53:16;;;;;;;1391.88;539.13;;;;;;;;;;4965367;28;20034;-84
2021/12/06 11:55:49;;;;;;;1999.90;999.90;;;;;;;;;;4977338;28;20046;-87
2021/12/06 11:58:28;;;;;;;1999.90;999.90;;;;;;;;;;4978159;28;20482;-85
2021/12/06 12:01:12;;;;;;;738.50;62.53;;;;;;;;;;4996536;28;20492;-81
2021/12/06 12:03:39;;;;;;;1999.90;999.90;;;;;;;;;;4996722;28;20477;-87
2021/12/06 12:06:29;;;;;;;1165.18;512.80;;;;;;;;;;4981088;28;20030;-89
2021/12/06 12:09:32;;;;;;;1999.90;999.90;;;;;;;;;;5007291;28;20121;-90
2021/12/06 12:12:06;;;;;;;1588.22;756.67;;;;;;;;;;5012045;28;20028;-85
2021/12/06 12:14:44;;;;;;;1999.90;999.90;;;;;;;;;;4993899;28;20112;-85
2021/12/06 12:17:15;;;;;;;1606.45;773.53;;;;;;;;;;4991809;28;20492;-90
2021/12/06 12:19:41;;;;;;;1674.25;764.63;;;;;;;;;;4979566;28;20109;-89
2021/12/06 12:22:07;;;;;;;1999.90;999.90;;;;;;;;;;4996856;28;20129;-90
2021/12/06 12:24:33;;;;;;;1999.90;999.90;;;;;;;;;;4994951;28;20030;-90
2021/12/06 12:27:41;;;;;;;1999.90;999.90;;;;;;;;;;4995723;28;20049;-89
2021/12/06 12:29:54;;;;;;;1999.90;999.90;;;;;;;;;;4987567;28;20080;-89
2021/12/06 12:32:19;;;;;;;455.88;41.50;;;;;;;;;;4984279;28;20034;-89
2021/12/06 12:34:45;;;;;;;1630.88;760.00;;;;;;;;;;4985530;28;20074;-90
2021/12/06 12:37:13;;;;;;;1999.90;999.90;;;;;;;;;;4981338;28;20080;-90
2021/12/06 12:39:39;;;;;;;1999.90;999.90;;;;;;;;;;4980502;28;20034;-90
2021/12/06 12:42:05;;;;;;;1626.45;759.65;;;;;;;;;;4965373;28;20046;-90
2021/12/06 12:44:53;;;;;;;1999.90;999.90;;;;;;;;;;4964375;28;20064;-89
2021/12/06 12:47:21;;;;;;;1999.90;999.90;;;;;;;;;;4980860;28;20030;-88
2021/12/06 12:49:48;;;;;;;1999.90;999.90;;;;;;;;;;4964554;28;20052;-91
2021/12/06 12:52:14;;;;;;;1665.22;766.42;;;;;;;;;;4964534;28;20026;-90
2021/12/06 12:54:42;;;;;;;1999.90;999.90;;;;;;;;;;4964211;28;20495;-91
2021/12/06 12:57:14;;;;;;;1999.90;999.90;;;;;;;;;;4980361;28;20018;-90
2021/12/06 12:59:42;;;;;;;1999.90;999.90;;;;;;;;;;4980755;28;20026;-90
2021/12/06 13:02:14;;;;;;;1999.90;999.90;;;;;;;;;;5012578;28;20484;-90
2021/12/06 13:04:58;;;;;;;1227.82;517.42;;;;;;;;;;5012866;28;20030;-91
2021/12/06 13:07:27;;;;;;;1999.90;999.90;;;;;;;;;;5014092;28;20030;-90
2021/12/06 13:09:53;;;;;;;1625.88;760.63;;;;;;;;;;4999581;28;20503;-90
2021/12/06 13:12:19;;;;;;;1999.90;999.90;;;;;;;;;;4968278;28;20069;-90
2021/12/06 13:14:52;;;;;;;1999.90;999.90;;;;;;;;;;4976869;28;20492;-89
2021/12/06 13:17:43;;;;;;;1999.90;999.90;;;;;;;;;;4962259;28;20030;-90
2021/12/06 13:20:20;;;;;;;1999.90;999.90;;;;;;;;;;4982901;28;20025;-89
2021/12/06 13:22:48;;;;;;;1999.90;999.90;;;;;;;;;;4980617;28;20052;-90
2021/12/06 13:25:34;;;;;;;1999.90;999.90;;;;;;;;;;4963542;28;20014;-90
2021/12/06 13:28:07;;;;;;;1999.90;999.90;;;;;;;;;;4995159;28;20050;-92
2021/12/06 13:30:39;;;;;;;1999.90;999.90;;;;;;;;;;4980313;28;20424;-90
2021/12/06 13:33:06;;;;;;;1652.40;759.80;;;;;;;;;;4979394;28;20100;-90
2021/12/06 13:35:35;;;;;;;1999.90;999.90;;;;;;;;;;4979978;28;20045;-89
2021/12/06 13:38:16;;;;;;;1601.95;756.55;;;;;;;;;;4979452;28;20569;-89
2021/12/06 13:40:51;;;;;;;1999.90;999.90;;;;;;;;;;4979447;28;20476;-90
2021/12/06 13:43:26;;;;;;;1999.90;999.90;;;;;;;;;;4996239;28;20026;-86
2021/12/06 13:45:53;;;;;;;1999.90;999.90;;;;;;;;;;4995493;28;20041;-89
2021/12/06 13:48:21;;;;;;;664.80;51.35;;;;;;;;;;4995498;28;20129;-90
2021/12/06 13:50:47;;;;;;;1162.40;511.00;;;;;;;;;;4979650;28;20106;-89
2021/12/06 13:53:22;;;;;;;1999.90;999.90;;;;;;;;;;4979517;28;20037;-89
2021/12/06 13:55:49;;;;;;;1999.90;999.90;;;;;;;;;;5011818;28;20033;-89
2021/12/06 13:58:15;;;;;;;1999.90;999.90;;;;;;;;;;4979009;28;20500;-90
2021/12/06 14:00:43;;;;;;;1999.90;999.90;;;;;;;;;;4977361;28;20026;-90
2021/12/06 14:03:14;;;;;;;1999.90;999.90;;;;;;;;;;4978775;28;20038;-89
2021/12/06 14:05:40;;;;;;;1999.90;999.90;;;;;;;;;;4979690;28;20514;-90
2021/12/06 14:08:06;;;;;;;1999.90;999.90;;;;;;;;;;4986578;28;20048;-90